createdAt,value
2019-05-17T00:00:58.581Z,20.80
2019-05-17T00:03:28.848Z,20.82
2019-05-17T00:05:58.956Z,21.33
2019-05-17T00:08:34.333Z,19.45
2019-05-17T00:11:00.712Z,21.70
2019-05-17T00:13:30.872Z,21.42
2019-05-17T00:16:01.190Z,22.27
2019-05-17T00:18:31.276Z,21.20
2019-05-17T00:21:01.327Z,21.73
2019-05-17T00:23:31.411Z,20.65
2019-05-17T00:26:01.519Z,20.50
2019-05-17T00:28:31.704Z,22.02
2019-05-17T00:31:01.791Z,21.50
2019-05-17T00:33:31.899Z,23.15
2019-05-17T00:36:01.853Z,20.70
2019-05-17T00:38:44.812Z,21.80
2019-05-17T00:41:03.605Z,21.45
2019-05-17T00:43:33.583Z,20.90
2019-05-17T00:46:03.673Z,20.17
2019-05-17T00:48:33.785Z,21.25
2019-05-17T00:51:03.883Z,20.17
2019-05-17T00:53:36.171Z,20.90
2019-05-17T00:56:06.633Z,20.95
2019-05-17T00:58:37.184Z,20.77
2019-05-17T01:01:08.223Z,21.90
2019-05-17T01:03:38.750Z,19.35
2019-05-17T01:06:08.835Z,20.90
2019-05-17T01:08:38.896Z,21.02
2019-05-17T01:11:09.096Z,22.13
2019-05-17T01:13:39.215Z,22.48
2019-05-17T01:16:09.329Z,23.32
2019-05-17T01:18:39.285Z,22.00
2019-05-17T01:21:09.322Z,21.77
2019-05-17T01:23:39.409Z,23.27
2019-05-17T01:26:09.525Z,23.25
2019-05-17T01:28:39.616Z,23.55
2019-05-17T01:31:09.655Z,24.25
2019-05-17T01:33:39.681Z,23.70
2019-05-17T01:36:09.723Z,23.83
2019-05-17T01:38:39.744Z,23.47
2019-05-17T01:41:09.856Z,22.65
2019-05-17T01:43:39.879Z,23.57
2019-05-17T01:46:09.996Z,23.55
2019-05-17T01:48:40.018Z,23.60
2019-05-17T01:51:10.131Z,23.50
2019-05-17T01:53:40.152Z,23.73
2019-05-17T01:56:10.268Z,24.05
2019-05-17T01:58:40.288Z,23.52
2019-05-17T02:01:10.408Z,24.02
2019-05-17T02:03:40.425Z,25.12
2019-05-17T02:06:10.556Z,23.80
2019-05-17T02:08:40.569Z,23.95
2019-05-17T02:11:10.610Z,24.57
2019-05-17T02:13:40.651Z,23.10
2019-05-17T02:16:10.837Z,23.52
2019-05-17T02:18:40.880Z,23.20
2019-05-17T02:21:11.041Z,23.10
2019-05-17T02:23:41.152Z,24.02
2019-05-17T02:26:11.643Z,22.42
2019-05-17T02:28:41.758Z,22.73
2019-05-17T02:31:13.325Z,23.30
2019-05-17T02:33:43.616Z,24.57
2019-05-17T02:36:14.396Z,24.87
2019-05-17T02:38:44.723Z,24.57
2019-05-17T02:41:14.813Z,23.95
2019-05-17T02:43:44.922Z,23.85
2019-05-17T02:46:14.942Z,24.90
2019-05-17T02:48:45.058Z,24.47
2019-05-17T02:51:15.141Z,23.50
2019-05-17T02:53:45.257Z,25.82
2019-05-17T02:56:15.357Z,24.02
2019-05-17T02:58:45.441Z,25.08
2019-05-17T03:01:15.552Z,26.00
2019-05-17T03:03:45.520Z,23.95
2019-05-17T03:06:15.741Z,24.82
2019-05-17T03:08:45.837Z,24.43
2019-05-17T03:11:15.872Z,25.88
2019-05-17T03:13:45.893Z,25.75
2019-05-17T03:16:16.014Z,26.37
2019-05-17T03:18:46.106Z,23.52
2019-05-17T03:21:16.213Z,24.37
2019-05-17T03:23:46.313Z,25.40
2019-05-17T03:26:16.416Z,25.27
2019-05-17T03:28:46.461Z,25.08
2019-05-17T03:31:17.776Z,25.43
2019-05-17T03:33:48.559Z,23.07
2019-05-17T03:36:25.488Z,25.17
2019-05-17T03:41:27.878Z,24.43
2019-05-17T03:43:54.240Z,24.20
2019-05-17T03:46:24.401Z,24.02
2019-05-17T03:48:54.513Z,25.60
2019-05-17T03:51:24.539Z,23.47
2019-05-17T03:53:54.584Z,25.25
2019-05-17T03:56:24.800Z,26.10
2019-05-17T03:58:54.773Z,26.33
2019-05-17T04:01:24.859Z,25.62
2019-05-17T04:03:54.989Z,26.73
2019-05-17T04:06:25.085Z,26.33
2019-05-17T04:08:55.128Z,23.95
2019-05-17T04:11:31.338Z,25.75
2019-05-17T04:13:56.881Z,25.68
2019-05-17T04:16:26.921Z,26.15
2019-05-17T04:18:56.939Z,26.00
2019-05-17T04:21:26.984Z,24.77
2019-05-17T04:23:57.081Z,25.72
2019-05-17T04:26:27.189Z,25.62
2019-05-17T04:28:57.225Z,26.17
2019-05-17T04:31:30.535Z,24.57
2019-05-17T04:34:02.664Z,25.25
2019-05-17T04:36:32.300Z,24.72
2019-05-17T04:39:02.621Z,24.72
2019-05-17T04:41:44.928Z,24.35
2019-05-17T04:44:04.535Z,24.18
2019-05-17T04:46:34.730Z,23.67
2019-05-17T04:49:04.768Z,25.05
2019-05-17T04:51:34.880Z,24.95
2019-05-17T04:54:04.992Z,23.90
2019-05-17T04:56:35.093Z,24.32
2019-05-17T04:59:05.208Z,23.83
2019-05-17T05:01:35.297Z,22.87
2019-05-17T05:04:05.416Z,24.05
2019-05-17T05:06:35.687Z,23.80
2019-05-17T05:09:07.380Z,24.85
2019-05-17T05:11:52.006Z,23.87
2019-05-17T05:14:09.135Z,22.85
2019-05-17T05:16:39.084Z,23.20
2019-05-17T05:19:09.056Z,25.55
2019-05-17T05:21:39.084Z,23.70
2019-05-17T05:24:11.417Z,22.93
2019-05-17T05:26:42.472Z,22.87
2019-05-17T05:29:12.937Z,24.10
2019-05-17T05:31:42.975Z,23.95
2019-05-17T05:34:12.993Z,23.83
2019-05-17T05:36:43.108Z,22.75
2019-05-17T05:39:13.139Z,23.18
2019-05-17T05:41:43.256Z,23.60
2019-05-17T05:44:13.370Z,22.85
2019-05-17T05:46:43.415Z,23.32
2019-05-17T05:49:13.523Z,22.17
2019-05-17T05:51:43.654Z,22.05
2019-05-17T05:54:13.749Z,20.82
2019-05-17T05:56:43.836Z,20.62
2019-05-17T05:59:13.864Z,21.00
2019-05-17T06:01:43.987Z,19.67
2019-05-17T06:04:14.007Z,19.37
2019-05-17T06:06:44.132Z,19.10
2019-05-17T06:09:14.168Z,19.10
2019-05-17T06:11:44.245Z,19.42
2019-05-17T06:14:14.270Z,19.15
2019-05-17T06:16:47.493Z,21.05
2019-05-17T06:19:16.115Z,19.80
2019-05-17T06:21:46.161Z,19.52
2019-05-17T06:24:16.262Z,19.52
2019-05-17T06:26:46.251Z,19.85
2019-05-17T06:29:16.277Z,19.85
2019-05-17T06:31:46.329Z,19.17
2019-05-17T06:34:16.280Z,17.73
2019-05-17T06:36:46.407Z,17.95
2019-05-17T06:39:16.527Z,18.70
2019-05-17T06:41:46.620Z,17.55
2019-05-17T06:44:16.739Z,18.55
2019-05-17T06:46:46.699Z,17.75
2019-05-17T06:49:16.685Z,17.75
2019-05-17T06:51:46.710Z,17.12
2019-05-17T06:54:16.832Z,16.60
2019-05-17T06:56:46.851Z,17.10
2019-05-17T06:59:16.950Z,16.75
2019-05-17T07:01:47.052Z,16.95
2019-05-17T07:04:19.236Z,16.50
2019-05-17T07:06:50.409Z,16.48
2019-05-17T07:09:20.523Z,17.12
2019-05-17T07:11:51.348Z,15.80
2019-05-17T07:14:21.493Z,14.40
2019-05-17T07:16:51.456Z,15.35
2019-05-17T07:19:21.522Z,14.93
2019-05-17T07:21:51.560Z,15.05
2019-05-17T07:24:21.618Z,14.47
2019-05-17T07:26:51.671Z,14.13
2019-05-17T07:29:21.724Z,13.30
2019-05-17T07:31:51.795Z,12.85
2019-05-17T07:34:21.834Z,12.37
2019-05-17T07:36:51.904Z,13.03
2019-05-17T07:39:21.925Z,12.68
2019-05-17T07:41:51.971Z,11.83
2019-05-17T07:44:22.000Z,10.95
2019-05-17T07:46:52.229Z,11.57
2019-05-17T07:49:22.272Z,11.25
2019-05-17T07:51:52.439Z,10.93
2019-05-17T07:54:22.592Z,9.73
2019-05-17T07:56:52.707Z,10.05
2019-05-17T07:59:22.745Z,9.63
2019-05-17T08:01:52.939Z,10.23
2019-05-17T08:04:22.888Z,9.50
2019-05-17T08:06:52.957Z,9.00
2019-05-17T08:09:23.047Z,10.48
2019-05-17T08:11:53.200Z,9.33
2019-05-17T08:14:29.971Z,9.60
2019-05-17T08:16:54.846Z,9.78
2019-05-17T08:19:24.893Z,8.70
2019-05-17T08:21:54.987Z,9.15
2019-05-17T08:24:25.031Z,8.45
2019-05-17T08:26:55.190Z,8.65
2019-05-17T08:29:25.303Z,8.83
2019-05-17T08:31:55.252Z,8.80
2019-05-17T08:34:25.364Z,9.05
2019-05-17T08:36:55.388Z,8.63
2019-05-17T08:39:25.445Z,9.15
2019-05-17T08:41:55.402Z,9.48
2019-05-17T08:44:25.367Z,8.75
2019-05-17T08:46:55.387Z,8.90
2019-05-17T08:49:25.504Z,9.68
2019-05-17T08:51:55.599Z,9.15
2019-05-17T08:54:25.650Z,9.70
2019-05-17T08:56:55.669Z,8.08
2019-05-17T08:59:25.717Z,8.35
2019-05-17T09:01:55.809Z,9.90
2019-05-17T09:04:25.988Z,8.90
2019-05-17T09:06:56.230Z,9.75
2019-05-17T09:09:26.223Z,10.05
2019-05-17T09:11:56.243Z,9.30
2019-05-17T09:14:26.423Z,9.05
2019-05-17T09:16:56.512Z,10.10
2019-05-17T09:19:26.552Z,8.35
2019-05-17T09:21:56.603Z,10.18
2019-05-17T09:24:26.810Z,9.43
2019-05-17T09:26:56.852Z,9.20
2019-05-17T09:29:26.877Z,8.90
2019-05-17T09:31:56.930Z,9.28
2019-05-17T09:34:26.948Z,9.00
2019-05-17T09:36:56.996Z,8.65
2019-05-17T09:39:29.379Z,8.95
2019-05-17T09:41:59.561Z,9.48
2019-05-17T09:44:29.951Z,8.27
2019-05-17T09:47:00.104Z,8.63
2019-05-17T09:49:30.196Z,8.93
2019-05-17T09:52:00.273Z,8.13
2019-05-17T09:54:41.390Z,8.38
2019-05-17T09:57:02.104Z,8.95
2019-05-17T09:59:32.131Z,7.58
2019-05-17T10:02:02.242Z,7.10
2019-05-17T10:04:32.285Z,6.08
2019-05-17T10:07:02.404Z,6.70
2019-05-17T10:09:32.631Z,7.12
2019-05-17T10:12:02.715Z,7.37
2019-05-17T10:14:32.927Z,7.03
2019-05-17T10:17:02.998Z,7.17
2019-05-17T10:19:33.041Z,6.65
2019-05-17T10:22:03.128Z,6.95
2019-05-17T10:24:37.995Z,6.80
2019-05-17T10:27:04.885Z,6.35
2019-05-17T10:29:34.991Z,5.97
2019-05-17T10:32:05.148Z,5.90
2019-05-17T10:34:35.259Z,6.80
2019-05-17T10:37:05.438Z,6.33
2019-05-17T10:39:35.519Z,7.00
2019-05-17T10:42:05.642Z,7.58
2019-05-17T10:44:46.335Z,6.47
2019-05-17T10:47:09.938Z,6.80
2019-05-17T10:52:10.225Z,5.72
2019-05-17T10:54:40.478Z,5.67
2019-05-17T10:57:10.788Z,5.97
2019-05-17T10:59:40.889Z,5.00
2019-05-17T11:02:11.002Z,5.12
2019-05-17T11:04:41.019Z,5.72
2019-05-17T11:07:11.190Z,4.92
2019-05-17T11:09:41.255Z,5.40
2019-05-17T11:12:11.540Z,6.30
2019-05-17T11:14:50.734Z,4.62
2019-05-17T11:19:42.765Z,5.42
2019-05-17T11:22:13.067Z,5.17
2019-05-17T11:24:43.165Z,4.90
2019-05-17T11:27:13.853Z,5.03
2019-05-17T11:29:44.110Z,5.00
2019-05-17T11:32:14.244Z,6.30
2019-05-17T11:34:45.474Z,5.83
2019-05-17T11:37:15.619Z,5.85
2019-05-17T11:39:45.728Z,4.80
2019-05-17T11:42:15.813Z,4.58
2019-05-17T11:44:45.890Z,4.08
2019-05-17T11:47:15.972Z,5.17
2019-05-17T11:49:46.083Z,4.90
2019-05-17T11:52:16.172Z,4.08
2019-05-17T11:54:47.579Z,3.95
2019-05-17T11:57:17.635Z,4.37
2019-05-17T11:59:48.747Z,5.25
2019-05-17T12:02:21.474Z,4.25
2019-05-17T12:04:50.532Z,4.03
2019-05-17T12:07:21.402Z,4.40
2019-05-17T12:09:51.413Z,4.00
2019-05-17T12:12:21.464Z,4.00
2019-05-17T12:14:52.366Z,4.40
2019-05-17T12:17:22.485Z,3.77
2019-05-17T12:19:52.574Z,3.40
2019-05-17T12:22:22.622Z,3.60
2019-05-17T12:24:52.640Z,3.80
2019-05-17T12:27:22.690Z,4.08
2019-05-17T12:29:52.793Z,3.55
2019-05-17T12:32:22.827Z,3.90
2019-05-17T12:34:52.917Z,2.90
2019-05-17T12:37:22.952Z,3.85
2019-05-17T12:39:53.074Z,3.20
2019-05-17T12:42:23.096Z,3.47
2019-05-17T12:44:53.259Z,3.30
2019-05-17T12:47:23.295Z,3.37
2019-05-17T12:49:53.352Z,3.85
2019-05-17T12:52:23.347Z,3.22
2019-05-17T12:54:53.502Z,3.37
2019-05-17T12:59:53.693Z,2.72
2019-05-17T13:02:23.701Z,3.35
2019-05-17T13:04:53.853Z,2.80
2019-05-17T13:07:23.789Z,3.80
2019-05-17T13:09:53.759Z,3.08
2019-05-17T13:12:23.811Z,3.02
2019-05-17T13:14:56.984Z,3.02
2019-05-17T13:17:27.109Z,2.80
2019-05-17T13:19:57.154Z,2.87
2019-05-17T13:22:27.492Z,3.10
2019-05-17T13:24:57.605Z,3.17
2019-05-17T13:27:27.696Z,2.75
2019-05-17T13:29:57.741Z,6.00
2019-05-17T13:32:29.407Z,3.27
2019-05-17T13:34:59.472Z,2.40
2019-05-17T13:37:29.452Z,2.90
2019-05-17T13:39:59.423Z,2.10
2019-05-17T13:42:29.464Z,2.35
2019-05-17T13:44:59.468Z,2.22
2019-05-17T13:47:29.684Z,2.50
2019-05-17T13:49:59.843Z,3.00
2019-05-17T13:52:30.107Z,2.85
2019-05-17T13:55:00.571Z,2.50
2019-05-17T13:57:31.307Z,2.30
2019-05-17T14:00:02.121Z,2.10
2019-05-17T14:02:32.312Z,2.30
2019-05-17T14:05:02.403Z,2.20
2019-05-17T14:07:32.592Z,2.10
2019-05-17T14:10:02.789Z,2.87
2019-05-17T14:12:33.150Z,2.50
2019-05-17T14:15:06.152Z,2.80
2019-05-17T14:17:36.746Z,2.70
2019-05-17T14:20:08.160Z,2.90
2019-05-17T14:22:38.611Z,2.70
2019-05-17T14:25:09.293Z,2.55
2019-05-17T14:27:39.488Z,2.47
2019-05-17T14:30:11.316Z,2.80
2019-05-17T14:35:10.874Z,2.85
2019-05-17T14:37:41.088Z,2.58
2019-05-17T14:40:12.576Z,2.05
2019-05-17T14:42:42.605Z,2.45
2019-05-17T14:45:12.916Z,2.70
2019-05-17T14:47:42.932Z,2.40
2019-05-17T14:50:13.639Z,2.20
2019-05-17T14:52:43.881Z,2.20
2019-05-17T14:55:14.009Z,2.12
2019-05-17T14:57:44.170Z,2.52
2019-05-17T15:00:14.658Z,2.20
2019-05-17T15:02:44.909Z,1.90
2019-05-17T15:05:15.148Z,1.98
2019-05-17T15:07:45.470Z,1.77
2019-05-17T15:10:15.748Z,1.60
2019-05-17T15:12:45.885Z,1.80
2019-05-17T15:15:25.569Z,2.20
2019-05-17T15:17:48.103Z,2.10
2019-05-17T15:20:19.047Z,1.62
2019-05-17T15:22:51.055Z,1.85
2019-05-17T15:25:21.238Z,1.70
2019-05-17T15:27:51.601Z,1.60
2019-05-17T15:30:21.717Z,1.57
2019-05-17T15:32:52.766Z,1.70
2019-05-17T15:35:23.921Z,1.80
2019-05-17T15:37:54.696Z,1.40
2019-05-17T15:40:25.366Z,1.60
2019-05-17T15:42:55.716Z,1.57
2019-05-17T15:45:26.025Z,1.45
2019-05-17T15:47:56.283Z,1.65
2019-05-17T15:50:26.569Z,1.40
2019-05-17T15:52:57.000Z,1.60
2019-05-17T15:55:27.244Z,1.55
2019-05-17T15:57:57.490Z,1.40
2019-05-17T16:00:27.589Z,1.62
2019-05-17T16:02:57.537Z,1.60
2019-05-17T16:05:27.649Z,1.70
2019-05-17T16:07:57.733Z,1.50
2019-05-17T16:10:28.043Z,1.40
2019-05-17T16:13:03.233Z,1.10
2019-05-17T16:15:29.961Z,1.00
2019-05-17T16:18:00.038Z,1.32
2019-05-17T16:20:30.122Z,1.40
2019-05-17T16:23:00.205Z,1.35
2019-05-17T16:25:34.102Z,1.20
2019-05-17T16:28:04.161Z,1.37
2019-05-17T16:30:34.514Z,1.25
2019-05-17T16:33:04.599Z,1.50
2019-05-17T16:35:34.636Z,1.30
2019-05-17T16:38:04.723Z,1.70
2019-05-17T16:40:34.835Z,1.50
2019-05-17T16:43:17.180Z,1.30
2019-05-17T16:45:36.657Z,1.42
2019-05-17T16:48:06.768Z,1.27
2019-05-17T16:50:36.956Z,1.57
2019-05-17T16:53:07.483Z,1.55
2019-05-17T16:55:37.955Z,1.62
2019-05-17T16:58:08.409Z,1.30
2019-05-17T17:00:43.669Z,1.40
2019-05-17T17:03:14.878Z,1.40
2019-05-17T17:05:45.417Z,1.42
2019-05-17T17:08:17.616Z,1.52
2019-05-17T17:13:16.668Z,1.40
2019-05-17T17:15:46.761Z,1.20
2019-05-17T17:18:16.894Z,1.50
2019-05-17T17:20:46.906Z,1.52
2019-05-17T17:23:17.044Z,1.60
2019-05-17T17:25:47.230Z,1.50
2019-05-17T17:28:17.400Z,1.55
2019-05-17T17:30:48.691Z,1.30
2019-05-17T17:33:18.797Z,1.52
2019-05-17T17:35:50.556Z,1.37
2019-05-17T17:38:20.672Z,1.40
2019-05-17T17:40:50.784Z,1.50
2019-05-17T17:43:20.804Z,1.32
2019-05-17T17:45:50.836Z,1.60
2019-05-17T17:48:20.919Z,1.72
2019-05-17T17:50:50.955Z,1.57
2019-05-17T17:53:20.977Z,1.45
2019-05-17T17:55:51.085Z,1.42
2019-05-17T17:58:21.167Z,1.40
2019-05-17T18:00:51.216Z,1.50
2019-05-17T18:03:21.525Z,1.60
2019-05-17T18:05:51.907Z,1.55
2019-05-17T18:08:21.917Z,1.65
2019-05-17T18:10:52.024Z,1.42
2019-05-17T18:13:22.108Z,1.75
2019-05-17T18:15:52.144Z,1.45
2019-05-17T18:18:22.228Z,1.52
2019-05-17T18:20:52.526Z,1.75
2019-05-17T18:23:23.699Z,1.60
2019-05-17T18:25:54.180Z,1.67
2019-05-17T18:28:24.383Z,1.90
2019-05-17T18:30:54.748Z,1.62
2019-05-17T18:33:24.978Z,1.85
2019-05-17T18:35:54.923Z,1.42
2019-05-17T18:38:27.673Z,1.60
2019-05-17T18:40:57.763Z,1.52
2019-05-17T18:43:28.530Z,1.45
2019-05-17T18:45:58.956Z,1.55
2019-05-17T18:48:29.275Z,1.80
2019-05-17T18:50:59.519Z,1.60
2019-05-17T18:53:30.757Z,1.52
2019-05-17T18:56:00.838Z,1.70
2019-05-17T18:58:30.811Z,1.70
2019-05-17T19:01:00.901Z,1.37
2019-05-17T19:03:31.025Z,1.70
2019-05-17T19:06:01.108Z,1.55
2019-05-17T19:08:31.288Z,1.75
2019-05-17T19:11:01.304Z,1.80
2019-05-17T19:13:31.418Z,1.90
2019-05-17T19:16:01.436Z,1.55
2019-05-17T19:18:31.612Z,1.82
2019-05-17T19:21:01.698Z,1.98
2019-05-17T19:23:31.668Z,1.82
2019-05-17T19:26:01.753Z,1.85
2019-05-17T19:28:31.865Z,1.70
2019-05-17T19:31:01.948Z,1.87
2019-05-17T19:33:31.992Z,1.72
2019-05-17T19:36:02.142Z,2.08
2019-05-17T19:38:32.260Z,2.00
2019-05-17T19:41:02.348Z,2.20
2019-05-17T19:43:32.468Z,2.02
2019-05-17T19:46:02.559Z,2.10
2019-05-17T19:48:32.749Z,2.20
2019-05-17T19:51:02.889Z,2.42
2019-05-17T19:53:33.017Z,2.02
2019-05-17T19:56:03.034Z,2.40
2019-05-17T19:58:33.148Z,2.17
2019-05-17T20:01:03.102Z,2.15
2019-05-17T20:03:33.218Z,2.58
2019-05-17T20:06:03.369Z,2.08
2019-05-17T20:08:33.328Z,2.47
2019-05-17T20:11:03.488Z,2.55
2019-05-17T20:13:33.645Z,2.40
2019-05-17T20:16:04.265Z,2.20
2019-05-17T20:18:34.432Z,2.05
2019-05-17T20:21:04.516Z,2.35
2019-05-17T20:23:34.769Z,2.72
2019-05-17T20:26:04.855Z,1.90
2019-05-17T20:28:34.895Z,2.00
2019-05-17T20:31:05.052Z,1.90
2019-05-17T20:33:35.044Z,2.10
2019-05-17T20:36:05.128Z,1.90
2019-05-17T20:38:35.209Z,2.60
2019-05-17T20:41:05.399Z,1.98
2019-05-17T20:43:35.410Z,2.75
2019-05-17T20:46:05.588Z,2.20
2019-05-17T20:48:35.604Z,2.90
2019-05-17T20:51:05.788Z,2.25
2019-05-17T20:53:35.928Z,2.83
2019-05-17T20:56:05.971Z,2.62
2019-05-17T20:58:36.005Z,2.30
2019-05-17T21:01:06.279Z,2.55
2019-05-17T21:03:36.288Z,2.85
2019-05-17T21:06:06.395Z,2.33
2019-05-17T21:08:45.488Z,2.52
2019-05-17T21:11:08.080Z,2.45
2019-05-17T21:13:38.096Z,2.60
2019-05-17T21:16:08.216Z,2.47
2019-05-17T21:18:38.182Z,2.42
2019-05-17T21:21:08.393Z,2.50
2019-05-17T21:23:38.431Z,2.67
2019-05-17T21:26:08.472Z,2.30
2019-05-17T21:28:38.585Z,2.67
2019-05-17T21:31:08.668Z,2.70
2019-05-17T21:33:38.728Z,2.62
2019-05-17T21:36:08.803Z,2.58
2019-05-17T21:38:38.723Z,2.80
2019-05-17T21:41:08.672Z,2.90
2019-05-17T21:43:38.711Z,2.62
2019-05-17T21:46:08.736Z,2.95
2019-05-17T21:48:38.703Z,3.10
2019-05-17T21:51:08.813Z,3.37
2019-05-17T21:53:38.920Z,3.00
2019-05-17T21:56:09.030Z,3.15
2019-05-17T21:58:39.040Z,3.12
2019-05-17T22:01:15.057Z,3.10
2019-05-17T22:03:45.312Z,3.45
2019-05-17T22:06:15.520Z,3.00
2019-05-17T22:08:45.798Z,3.17
2019-05-17T22:11:15.846Z,3.22
2019-05-17T22:13:45.926Z,3.27
2019-05-17T22:16:19.703Z,2.90
2019-05-17T22:18:47.739Z,4.03
2019-05-17T22:21:17.906Z,3.55
2019-05-17T22:23:47.861Z,3.75
2019-05-17T22:26:17.912Z,3.65
2019-05-17T22:28:47.860Z,3.90
2019-05-17T22:31:17.976Z,3.87
2019-05-17T22:33:48.057Z,3.22
2019-05-17T22:36:18.273Z,3.92
2019-05-17T22:38:48.230Z,3.70
2019-05-17T22:41:18.333Z,3.90
2019-05-17T22:43:48.382Z,3.85
2019-05-17T22:46:18.489Z,4.00
2019-05-17T22:48:48.531Z,3.98
2019-05-17T22:51:18.615Z,3.98
2019-05-17T22:53:48.732Z,4.20
2019-05-17T22:56:18.821Z,4.47
2019-05-17T22:58:48.967Z,3.98
2019-05-17T23:01:19.027Z,3.95
2019-05-17T23:03:49.079Z,4.58
2019-05-17T23:06:19.118Z,3.98
2019-05-17T23:08:49.223Z,4.53
2019-05-17T23:11:19.238Z,4.40
2019-05-17T23:13:49.207Z,4.83
2019-05-17T23:16:19.292Z,4.50
2019-05-17T23:19:08.879Z,4.35
2019-05-17T23:21:39.619Z,4.42
2019-05-17T23:24:09.732Z,4.37
2019-05-17T23:26:39.815Z,4.15
2019-05-17T23:29:09.862Z,4.40
2019-05-17T23:31:39.809Z,4.40
2019-05-17T23:34:09.853Z,4.47
2019-05-17T23:36:39.886Z,5.12
2019-05-17T23:39:09.971Z,4.75
2019-05-17T23:41:40.080Z,4.42
2019-05-17T23:44:10.091Z,4.92
2019-05-17T23:46:40.123Z,4.90
2019-05-17T23:49:10.145Z,5.83
2019-05-17T23:51:40.183Z,6.15
2019-05-17T23:54:10.273Z,6.75
2019-05-17T23:56:40.245Z,7.25
2019-05-17T23:59:10.427Z,6.20
